Time;durP1;ratioP1;P1;durP2;ratioP2;P2;SDS_P1;SDS_P2;PMS_P1;PMS_P2;Temp;Humidity;BMP_temperature;BMP_pressure;BME280_temperature;BME280_humidity;BME280_pressure;Samples;Min_cycle;Max_cycle;Signal;HPM_P1;HPM_P2
2021/12/09 00:00:35;;;;;;;21.00;4.35;;;;;;;24.33;46.99;98042.25;7310850;19;130416;-39
2021/12/09 00:03:05;;;;;;;21.33;4.70;;;;;;;24.28;47.44;98051.69;7310799;19;130709;-39
2021/12/09 00:05:32;;;;;;;17.83;4.97;;;;;;;24.24;47.48;98050.50;7309373;19;128831;-38
2021/12/09 00:07:57;;;;;;;23.58;5.25;;;;;;;24.24;47.43;98051.31;7309682;19;131089;-38
2021/12/09 00:10:22;;;;;;;22.75;5.00;;;;;;;24.21;47.56;98056.91;7315200;19;129756;-39
2021/12/09 00:12:48;;;;;;;28.23;5.22;;;;;;;24.21;47.59;98056.91;7316743;19;129893;-38
2021/12/09 00:15:13;;;;;;;16.33;4.45;;;;;;;24.19;47.49;98064.22;7317609;19;129509;-38
2021/12/09 00:17:39;;;;;;;26.65;4.90;;;;;;;24.10;47.50;98052.22;7316151;19;130240;-38
2021/12/09 00:20:05;;;;;;;20.30;4.60;;;;;;;24.14;48.17;98061.34;7316472;19;129158;-38
2021/12/09 00:22:30;;;;;;;27.37;5.10;;;;;;;24.15;47.64;98068.22;7316804;19;128821;-38
2021/12/09 00:24:55;;;;;;;22.48;4.80;;;;;;;24.15;48.23;98073.47;7312920;19;153864;-39
2021/12/09 00:27:21;;;;;;;24.77;5.17;;;;;;;24.13;47.88;98064.97;7313963;19;159031;-38
2021/12/09 00:29:46;;;;;;;22.50;4.72;;;;;;;24.04;47.47;98052.19;7314047;19;129328;-39
2021/12/09 00:32:12;;;;;;;16.98;4.13;;;;;;;24.09;48.05;98074.25;7316946;19;129462;-38
2021/12/09 00:34:40;;;;;;;25.52;5.53;;;;;;;24.04;47.45;98076.63;7312666;19;153910;-38
2021/12/09 00:37:53;;;;;;;9.98;4.00;;;;;;;24.05;48.41;98075.63;7316299;19;130680;-38
2021/12/09 00:39:56;;;;;;;20.70;4.40;;;;;;;24.08;47.82;98077.84;7315521;19;130392;-39
2021/12/09 00:42:24;;;;;;;18.35;4.55;;;;;;;24.04;47.71;98081.88;7315811;19;153589;-38
2021/12/09 00:44:51;;;;;;;32.08;5.80;;;;;;;23.99;48.45;98079.03;7313107;19;129642;-39
2021/12/09 00:47:16;;;;;;;;;;;;;;;23.98;47.83;98082.63;7317192;19;130431;-38
2021/12/09 00:49:42;;;;;;;19.15;4.68;;;;;;;24.01;48.20;98090.16;7313615;19;129339;-38
2021/12/09 00:52:07;;;;;;;17.03;4.87;;;;;;;24.08;48.14;98093.59;7316300;19;129648;-39
2021/12/09 00:54:33;;;;;;;22.70;4.75;;;;;;;24.02;47.94;98083.88;7312333;19;154072;-38
2021/12/09 00:56:59;;;;;;;17.48;4.38;;;;;;;24.03;48.36;98098.63;7315265;19;129250;-38
2021/12/09 00:59:24;;;;;;;25.45;5.10;;;;;;;23.99;48.21;98093.94;7315167;19;151338;-38
2021/12/09 01:01:49;;;;;;;22.60;4.65;;;;;;;23.99;48.34;98100.03;7314059;19;154548;-38
2021/12/09 01:04:15;;;;;;;17.65;4.45;;;;;;;24.00;48.48;98106.88;7313879;19;129589;-39
2021/12/09 01:06:40;;;;;;;32.28;5.70;;;;;;;24.02;47.95;98107.50;7313585;19;130081;-38
2021/12/09 01:09:05;;;;;;;19.90;4.85;;;;;;;23.99;48.01;98110.53;7314334;19;129061;-39
2021/12/09 01:11:31;;;;;;;25.10;5.47;;;;;;;23.90;48.59;98095.88;7314957;19;129484;-38
2021/12/09 01:13:56;;;;;;;23.77;5.35;;;;;;;23.97;48.82;98104.59;7312996;19;128840;-38
2021/12/09 01:16:22;;;;;;;21.95;5.20;;;;;;;23.99;48.62;98107.91;7314650;19;130343;-38
2021/12/09 01:18:48;;;;;;;25.95;4.82;;;;;;;23.96;48.15;98100.38;7314376;19;129960;-39
2021/12/09 01:21:14;;;;;;;21.13;5.38;;;;;;;23.89;48.59;98099.50;7312576;19;139220;-38
2021/12/09 01:23:40;;;;;;;28.20;5.33;;;;;;;24.01;48.39;98107.69;7313129;19;128804;-38
2021/12/09 01:26:07;;;;;;;16.27;4.03;;;;;;;23.87;48.39;98093.63;7314519;19;130217;-39
2021/12/09 01:28:42;;;;;;;24.65;5.38;;;;;;;23.99;48.52;98109.69;7313716;19;130360;-38
2021/12/09 01:31:08;;;;;;;15.32;3.97;;;;;;;23.96;48.75;98118.75;7314746;19;129616;-38
2021/12/09 01:33:35;;;;;;;25.10;5.35;;;;;;;23.98;48.30;98114.13;7313783;19;129703;-38
2021/12/09 01:36:02;;;;;;;25.38;5.55;;;;;;;23.93;48.17;98111.22;7313600;19;130160;-38
2021/12/09 01:38:30;;;;;;;13.93;4.37;;;;;;;23.91;48.37;98108.00;7314270;19;133110;-38
2021/12/09 01:40:56;;;;;;;18.85;4.78;;;;;;;24.00;48.11;98114.75;7314218;19;128992;-39
2021/12/09 01:43:22;;;;;;;23.42;5.05;;;;;;;23.99;48.78;98118.41;7314020;19;128989;-38
2021/12/09 01:45:48;;;;;;;;;;;;;;;23.91;48.73;98108.00;7314159;19;131582;-38
2021/12/09 01:48:13;;;;;;;17.85;4.50;;;;;;;23.99;47.96;98117.56;7313774;19;129603;-38
2021/12/09 01:50:38;;;;;;;20.33;4.80;;;;;;;23.99;48.71;98115.78;7314831;19;128752;-38
2021/12/09 01:53:07;;;;;;;16.92;4.28;;;;;;;23.96;48.27;98121.38;7312302;19;130054;-40
2021/12/09 01:55:33;;;;;;;20.40;4.75;;;;;;;23.96;48.43;98118.75;7313114;19;130641;-40
2021/12/09 01:57:59;;;;;;;20.65;5.00;;;;;;;24.02;48.64;98125.06;7313421;19;131055;-38
2021/12/09 02:00:27;;;;;;;12.57;4.13;;;;;;;23.96;48.41;98131.88;7312203;19;130092;-38
2021/12/09 02:02:53;;;;;;;25.88;5.53;;;;;;;24.01;48.42;98123.44;7313470;19;129350;-39
2021/12/09 02:05:19;;;;;;;22.97;5.63;;;;;;;23.97;48.11;98117.75;7313013;19;129097;-40
2021/12/09 02:07:44;;;;;;;26.93;5.70;;;;;;;24.00;48.74;98133.13;7312935;19;129094;-38
2021/12/09 02:10:17;;;;;;;19.30;4.72;;;;;;;23.99;48.01;98126.28;7313574;19;129293;-39
2021/12/09 02:12:45;;;;;;;26.40;5.53;;;;;;;23.96;48.74;98121.38;7313991;19;129126;-40
2021/12/09 02:15:10;;;;;;;16.25;4.63;;;;;;;23.96;48.23;98116.13;7313087;19;129173;-39
2021/12/09 02:17:36;;;;;;;27.55;5.75;;;;;;;23.96;48.54;98116.13;7313139;19;129753;-39
2021/12/09 02:20:04;;;;;;;17.98;4.82;;;;;;;23.98;48.81;98129.88;7314127;19;128959;-40
2021/12/09 02:22:30;;;;;;;22.45;4.82;;;;;;;23.99;48.23;98125.44;7312622;19;128990;-40
2021/12/09 02:24:56;;;;;;;21.67;4.97;;;;;;;23.95;48.79;98118.91;7309898;19;129157;-39
2021/12/09 02:27:24;;;;;;;24.48;5.00;;;;;;;24.00;48.33;98127.88;7311986;19;131167;-39
2021/12/09 02:29:50;;;;;;;24.25;5.15;;;;;;;24.02;48.72;98127.69;7311013;19;129757;-39
2021/12/09 02:32:16;;;;;;;21.27;4.93;;;;;;;24.04;48.49;98118.63;7311487;19;129132;-39
2021/12/09 02:34:41;;;;;;;29.35;5.78;;;;;;;23.98;48.34;98127.25;7308087;19;158428;-38
2021/12/09 02:37:09;;;;;;;17.00;3.90;;;;;;;23.98;47.83;98119.38;7312105;19;129159;-37
2021/12/09 02:39:35;;;;;;;23.65;5.20;;;;;;;23.99;48.77;98105.28;7313114;19;130019;-39
2021/12/09 02:42:00;;;;;;;21.48;4.57;;;;;;;23.95;48.43;98106.59;7312962;19;129073;-39
2021/12/09 02:44:27;;;;;;;21.63;5.10;;;;;;;23.96;48.11;98116.13;7309965;19;130112;-39
2021/12/09 02:46:55;;;;;;;24.63;5.13;;;;;;;23.99;48.25;98113.16;7312444;19;130512;-39
2021/12/09 02:49:23;;;;;;;23.40;4.95;;;;;;;23.98;48.82;98108.88;7311048;19;129060;-39
2021/12/09 02:51:51;;;;;;;28.35;5.60;;;;;;;23.88;48.49;98097.88;7313054;19;129787;-40
2021/12/09 02:54:19;;;;;;;20.52;4.90;;;;;;;23.95;48.56;98103.97;7309701;19;129774;-38
2021/12/09 02:56:46;;;;;;;15.55;4.47;;;;;;;23.95;48.51;98103.16;7311151;19;129830;-39
2021/12/09 02:59:12;;;;;;;22.38;5.38;;;;;;;23.89;48.85;98099.50;7312470;19;129542;-39
2021/12/09 03:01:54;;;;;;;33.08;5.65;;;;;;;23.98;48.31;98098.38;7312716;19;129163;-39
2021/12/09 03:04:20;;;;;;;20.00;4.65;;;;;;;23.95;49.04;98101.34;7309565;19;129043;-40
2021/12/09 03:06:45;;;;;;;36.10;6.35;;;;;;;23.89;48.46;98094.25;7311024;19;129663;-38
2021/12/09 03:09:17;;;;;;;21.30;4.75;;;;;;;23.93;48.54;98105.97;7310833;19;129230;-40
2021/12/09 03:11:45;;;;;;;28.98;5.22;;;;;;;23.90;49.18;98106.38;7311727;19;129531;-39
2021/12/09 03:14:10;;;;;;;17.23;4.78;;;;;;;23.91;48.74;98121.13;7309516;19;130555;-40
2021/12/09 03:16:38;;;;;;;27.10;5.30;;;;;;;23.93;49.02;98116.47;7311550;19;129770;-40
2021/12/09 03:19:06;;;;;;;20.95;4.97;;;;;;;23.89;48.51;98125.75;7311683;19;129459;-38
2021/12/09 03:21:32;;;;;;;22.23;5.25;;;;;;;23.91;49.09;98131.63;7311578;19;129127;-39
2021/12/09 03:24:00;;;;;;;26.88;5.93;;;;;;;23.92;48.67;98130.63;7309339;19;130251;-40
2021/12/09 03:26:29;;;;;;;25.83;6.07;;;;;;;23.89;48.69;98125.75;7311141;19;130616;-39
2021/12/09 03:29:00;;;;;;;22.13;4.90;;;;;;;23.94;49.00;98133.88;7310699;19;129219;-40
2021/12/09 03:31:26;;;;;;;21.60;4.70;;;;;;;23.94;48.84;98139.13;7311835;19;129470;-38
2021/12/09 03:33:51;;;;;;;26.40;5.60;;;;;;;23.89;48.32;98133.63;7309952;19;129148;-39
2021/12/09 03:36:17;;;;;;;18.92;4.97;;;;;;;23.83;49.07;98131.75;7309460;19;158614;-39
2021/12/09 03:38:42;;;;;;;34.38;6.60;;;;;;;23.92;48.75;98142.91;7312143;19;128925;-40
2021/12/09 03:41:08;;;;;;;23.70;5.20;;;;;;;23.91;48.26;98141.31;7311826;19;128856;-37
2021/12/09 03:43:33;;;;;;;25.73;5.45;;;;;;;23.90;48.85;98143.13;7308659;19;158777;-39
2021/12/09 03:46:00;;;;;;;20.25;5.25;;;;;;;23.87;48.46;98127.75;7315103;19;158436;-40
2021/12/09 03:48:27;;;;;;;23.33;5.20;;;;;;;23.93;48.82;98121.72;7317022;19;129386;-40
2021/12/09 03:50:53;;;;;;;22.30;5.15;;;;;;;23.90;48.91;98105.56;7317618;19;128878;-40
2021/12/09 03:53:19;;;;;;;18.37;5.03;;;;;;;23.89;48.79;98099.50;7316460;19;130915;-39
2021/12/09 03:55:45;;;;;;;25.42;5.05;;;;;;;23.89;48.92;98096.88;7315381;19;131917;-38
2021/12/09 03:58:10;;;;;;;18.30;4.68;;;;;;;23.89;48.44;98110.00;7317904;19;129053;-38
2021/12/09 04:00:35;;;;;;;24.63;5.40;;;;;;;23.90;48.75;98116.88;7317103;19;129247;-40
2021/12/09 04:03:01;;;;;;;20.30;4.60;;;;;;;23.88;48.52;98082.13;7315635;19;140358;-40
2021/12/09 04:05:27;;;;;;;23.70;5.23;;;;;;;23.86;48.99;98081.53;7315651;19;129637;-39
2021/12/09 04:07:53;;;;;;;27.48;6.22;;;;;;;23.85;48.67;98100.88;7317306;19;128750;-39
2021/12/09 04:10:20;;;;;;;17.90;4.63;;;;;;;23.86;48.87;98105.16;7314583;19;129105;-38
2021/12/09 04:12:45;;;;;;;29.25;5.90;;;;;;;23.83;49.32;98102.88;7316445;19;129848;-39
2021/12/09 04:15:11;;;;;;;26.73;5.38;;;;;;;23.88;48.91;98111.00;7316525;19;129973;-40
2021/12/09 04:17:36;;;;;;;17.52;4.85;;;;;;;23.89;48.71;98115.25;7317059;19;129034;-41
2021/12/09 04:20:05;;;;;;;17.15;4.70;;;;;;;23.82;48.40;98088.13;7317329;19;129190;-42
2021/12/09 04:22:31;;;;;;;21.85;5.82;;;;;;;23.88;48.71;98111.00;7316226;19;131304;-42
2021/12/09 04:24:56;;;;;;;25.83;5.65;;;;;;;23.87;49.12;98112.00;7312637;19;150762;-41
2021/12/09 04:27:23;;;;;;;20.43;5.10;;;;;;;23.89;48.91;98133.63;7317046;19;129105;-40
2021/12/09 04:29:48;;;;;;;25.92;5.85;;;;;;;23.94;48.82;98130.44;7315200;19;129459;-40
2021/12/09 04:32:14;;;;;;;7.25;3.50;;;;;;;23.87;48.85;98121.69;7316432;19;130369;-41
2021/12/09 04:34:39;;;;;;;34.35;5.97;;;;;;;23.88;48.60;98129.38;7311422;19;130616;-38
2021/12/09 04:37:05;;;;;;;37.80;6.25;;;;;;;23.86;48.82;98126.13;7309501;19;155636;-39
2021/12/09 04:39:30;;;;;;;21.48;5.00;;;;;;;23.81;48.76;98118.03;7312627;19;138625;-39
2021/12/09 04:41:55;;;;;;;21.50;5.43;;;;;;;23.86;49.26;98131.38;7314861;19;158642;-42
2021/12/09 04:44:22;;;;;;;23.00;5.15;;;;;;;23.86;48.98;98135.81;7313020;19;130564;-41
2021/12/09 04:46:48;;;;;;;31.65;6.00;;;;;;;23.79;48.99;98120.03;7314975;19;129459;-42
2021/12/09 04:49:13;;;;;;;19.05;5.15;;;;;;;23.86;49.17;98136.63;7315446;19;129176;-42
2021/12/09 04:51:39;;;;;;;29.35;6.13;;;;;;;23.76;49.01;98141.41;7313963;19;129042;-39
2021/12/09 04:54:05;;;;;;;19.55;4.72;;;;;;;23.72;49.09;98145.38;7313833;19;129496;-40
2021/12/09 04:56:31;;;;;;;23.67;6.32;;;;;;;23.64;48.45;98145.50;7311615;19;129856;-41
2021/12/09 04:58:56;;;;;;;19.45;6.45;;;;;;;23.57;47.71;98128.88;7315929;19;128820;-41
2021/12/09 05:01:22;;;;;;;34.53;7.63;;;;;;;23.55;48.64;98138.75;7313461;19;158465;-41
2021/12/09 05:03:48;;;;;;;40.15;8.30;;;;;;;23.53;49.00;98135.53;7312865;19;130472;-41
2021/12/09 05:06:15;;;;;;;20.55;6.22;;;;;;;23.55;48.98;98114.34;7314551;19;128756;-42
2021/12/09 05:08:45;;;;;;;33.10;7.13;;;;;;;23.58;48.86;98117.41;7311259;19;129371;-40
2021/12/09 05:11:16;;;;;;;34.30;7.10;;;;;;;23.52;49.28;98112.91;7311397;19;130615;-39
2021/12/09 05:13:42;;;;;;;39.90;8.07;;;;;;;23.64;49.05;98111.41;7312154;19;131067;-40
2021/12/09 05:16:09;;;;;;;16.00;5.45;;;;;;;23.66;48.86;98109.41;7314554;19;154592;-41
2021/12/09 05:18:38;;;;;;;31.27;6.60;;;;;;;23.75;48.79;98118.75;7314911;19;129239;-38
2021/12/09 05:21:06;;;;;;;32.67;6.88;;;;;;;23.79;48.19;98124.44;7314468;19;131590;-42
2021/12/09 05:23:32;;;;;;;24.13;6.18;;;;;;;23.82;48.60;98124.88;7313922;19;131101;-41
2021/12/09 05:25:57;;;;;;;21.10;5.47;;;;;;;23.91;48.50;98115.88;7313033;19;129049;-41
2021/12/09 05:28:31;;;;;;;23.92;6.05;;;;;;;23.99;47.98;98115.78;7314624;19;143001;-40
2021/12/09 05:33:41;;;;;;;31.45;6.72;;;;;;;24.08;48.21;98124.31;7313671;19;130427;-39
2021/12/09 05:36:07;;;;;;;23.52;6.00;;;;;;;24.13;47.95;98124.56;7314028;19;129748;-40
2021/12/09 05:38:32;;;;;;;22.98;6.60;;;;;;;24.08;47.88;98113.81;7313424;19;132231;-40
2021/12/09 05:40:57;;;;;;;16.70;5.65;;;;;;;24.22;48.11;98118.97;7311796;19;153697;-38
2021/12/09 05:43:22;;;;;;;22.90;5.53;;;;;;;24.28;47.70;98112.13;7311144;19;160365;-41
2021/12/09 05:45:48;;;;;;;31.98;6.28;;;;;;;24.29;47.46;98125.09;7311856;19;155343;-40
2021/12/09 05:48:15;;;;;;;23.13;6.07;;;;;;;24.25;48.03;98104.63;7314972;19;130797;-38
2021/12/09 05:50:41;;;;;;;30.92;6.25;;;;;;;24.34;47.90;98125.31;7311158;19;129221;-37
2021/12/09 05:53:07;;;;;;;22.00;5.93;;;;;;;24.37;47.87;98137.25;7313116;19;130307;-38
2021/12/09 05:55:33;;;;;;;30.97;6.83;;;;;;;24.39;47.66;98143.13;7311336;19;129054;-39
2021/12/09 05:57:58;;;;;;;22.20;5.50;;;;;;;24.45;47.13;98143.16;7313222;19;129025;-38
2021/12/09 06:00:24;;;;;;;37.10;7.73;;;;;;;24.47;47.57;98135.09;7312929;19;129408;-38
2021/12/09 06:02:49;;;;;;;25.87;6.07;;;;;;;24.44;47.42;98112.63;7311994;19;129253;-38
2021/12/09 06:05:15;;;;;;;21.67;5.47;;;;;;;24.51;47.05;98135.50;7312744;19;130157;-39
2021/12/09 06:07:40;;;;;;;24.98;5.72;;;;;;;24.52;47.19;98151.06;7312580;19;130741;-39
2021/12/09 06:10:06;;;;;;;17.00;5.17;;;;;;;24.48;46.92;98129.63;7310255;19;158553;-38
2021/12/09 06:12:32;;;;;;;31.92;6.40;;;;;;;24.52;47.19;98110.84;7312526;19;131717;-39
2021/12/09 06:14:58;;;;;;;37.70;7.63;;;;;;;24.49;46.89;98112.84;7310116;19;129601;-37
2021/12/09 06:17:23;;;;;;;23.15;5.60;;;;;;;24.58;47.54;98120.59;7313058;19;129396;-38
2021/12/09 06:19:48;;;;;;;23.83;6.03;;;;;;;24.56;47.41;98119.97;7312944;19;158891;-38
2021/12/09 06:22:14;;;;;;;19.67;5.65;;;;;;;24.56;47.04;98138.38;7312265;19;159217;-38
2021/12/09 06:24:40;;;;;;;27.77;6.32;;;;;;;24.59;47.25;98128.28;7309443;19;152854;-38
2021/12/09 06:27:06;;;;;;;9.87;4.27;;;;;;;24.53;47.48;98112.47;7312537;19;131876;-38
2021/12/09 06:29:33;;;;;;;28.03;6.27;;;;;;;24.53;47.33;98107.22;7311416;19;130088;-38
2021/12/09 06:31:58;;;;;;;19.27;5.68;;;;;;;24.62;47.08;98140.22;7313699;19;129145;-38
2021/12/09 06:34:24;;;;;;;22.90;5.60;;;;;;;24.64;47.27;98161.84;7310707;19;129463;-38
2021/12/09 06:36:49;;;;;;;20.10;5.15;;;;;;;24.52;46.82;98158.13;7310879;19;129976;-40
2021/12/09 06:39:14;;;;;;;20.45;4.95;;;;;;;24.63;46.79;98170.72;7312078;19;158159;-38
2021/12/09 06:41:40;;;;;;;30.25;6.15;;;;;;;24.63;46.94;98181.25;7313044;19;130083;-39
2021/12/09 06:44:05;;;;;;;24.13;5.17;;;;;;;24.68;46.69;98173.63;7311093;19;128684;-40
2021/12/09 06:46:31;;;;;;;25.23;5.87;;;;;;;24.62;46.81;98175.19;7308443;19;128890;-39
2021/12/09 06:48:57;;;;;;;24.65;5.85;;;;;;;24.68;46.74;98184.13;7312113;19;129208;-38
2021/12/09 06:51:22;;;;;;;23.38;5.30;;;;;;;24.62;47.22;98184.88;7312026;19;131284;-38
2021/12/09 06:53:48;;;;;;;40.00;8.10;;;;;;;24.63;46.72;98165.47;7309665;19;129039;-38
2021/12/09 06:56:13;;;;;;;16.80;4.82;;;;;;;24.64;47.30;98172.38;7311659;19;129208;-38
2021/12/09 06:58:38;;;;;;;26.73;6.03;;;;;;;24.65;46.73;98192.38;7312316;19;130378;-38
2021/12/09 07:01:05;;;;;;;15.77;4.60;;;;;;;24.65;46.99;98187.13;7308208;19;158838;-38
2021/12/09 07:03:30;;;;;;;24.23;5.83;;;;;;;24.60;46.81;98181.63;7311088;19;128873;-38
2021/12/09 07:06:01;;;;;;;23.92;5.93;;;;;;;24.59;47.25;98191.34;7311252;19;129712;-37
2021/12/09 07:08:26;;;;;;;35.25;6.57;;;;;;;24.60;46.92;98187.72;7310858;19;130102;-38
2021/12/09 07:10:52;;;;;;;23.25;5.35;;;;;;;24.58;47.24;98168.69;7307840;19;129929;-38
2021/12/09 07:13:17;;;;;;;21.90;5.35;;;;;;;24.55;47.28;98181.41;7311516;19;129153;-37
2021/12/09 07:15:43;;;;;;;31.10;6.07;;;;;;;24.59;47.02;98190.53;7310387;19;129026;-38
2021/12/09 07:18:08;;;;;;;26.50;5.57;;;;;;;24.52;47.13;98181.78;7310747;19;129338;-38
2021/12/09 07:20:36;;;;;;;28.08;5.88;;;;;;;24.55;47.35;98184.03;7309002;19;129794;-37
2021/12/09 07:23:01;;;;;;;7.10;4.05;;;;;;;24.54;47.23;98180.59;7310357;19;142626;-37
2021/12/09 07:25:28;;;;;;;31.42;6.18;;;;;;;24.51;47.79;98188.06;7309207;19;139848;-37
2021/12/09 07:27:54;;;;;;;27.15;5.72;;;;;;;24.54;47.76;98213.94;7311308;19;129233;-38
2021/12/09 07:30:22;;;;;;;15.82;5.13;;;;;;;24.51;47.44;98215.13;7308824;19;130394;-37
2021/12/09 07:32:48;;;;;;;18.17;5.00;;;;;;;24.53;47.76;98180.81;7310117;19;129204;-38
2021/12/09 07:35:15;;;;;;;25.03;5.60;;;;;;;24.48;47.80;98163.78;7310462;19;129187;-38
2021/12/09 07:37:40;;;;;;;37.45;6.50;;;;;;;24.46;47.18;98167.63;7310632;19;129363;-38
2021/12/09 07:40:10;;;;;;;29.42;5.55;;;;;;;24.40;47.23;98166.56;7310626;19;129709;-37
2021/12/09 07:42:35;;;;;;;33.80;6.53;;;;;;;24.48;47.65;98186.59;7309764;19;129386;-38
2021/12/09 07:45:01;;;;;;;22.90;5.35;;;;;;;24.47;47.29;98182.38;7309271;19;129369;-38
2021/12/09 07:47:27;;;;;;;13.10;4.32;;;;;;;24.48;47.52;98183.19;7309873;19;130130;-37
2021/12/09 07:49:52;;;;;;;22.23;5.45;;;;;;;24.43;48.05;98187.19;7309400;19;129209;-37
2021/12/09 07:52:18;;;;;;;27.52;5.50;;;;;;;24.42;47.67;98182.97;7310201;19;129226;-38
2021/12/09 07:54:43;;;;;;;37.67;6.78;;;;;;;24.44;47.60;98195.91;7307660;19;129961;-37
2021/12/09 07:57:08;;;;;;;21.33;4.90;;;;;;;24.46;47.92;98191.28;7310345;19;130735;-38
2021/12/09 07:59:34;;;;;;;26.13;5.45;;;;;;;24.45;47.45;98190.44;7310731;19;130273;-38
2021/12/09 08:02:00;;;;;;;24.33;5.40;;;;;;;24.43;48.12;98181.94;7308738;19;129100;-38
2021/12/09 08:04:25;;;;;;;20.33;4.78;;;;;;;24.34;47.79;98164.72;7308040;19;129404;-37
2021/12/09 08:06:50;;;;;;;13.88;4.35;;;;;;;24.43;47.44;98189.81;7309417;19;129206;-38
2021/12/09 08:09:16;;;;;;;18.63;4.53;;;;;;;24.38;48.42;98186.97;7308097;19;158254;-38
2021/12/09 08:11:43;;;;;;;30.30;6.40;;;;;;;24.38;47.59;98194.84;7310597;19;129227;-37
2021/12/09 08:14:11;;;;;;;13.88;4.47;;;;;;;24.39;48.03;98188.56;7308038;19;128907;-37
2021/12/09 08:16:38;;;;;;;31.75;6.22;;;;;;;24.41;48.15;98202.31;7308846;19;130295;-37
2021/12/09 08:19:08;;;;;;;17.75;4.68;;;;;;;24.41;47.83;98202.31;7310246;19;130401;-37
2021/12/09 08:21:36;;;;;;;31.60;5.95;;;;;;;24.40;47.83;98200.72;7309132;19;129042;-37
2021/12/09 08:24:04;;;;;;;20.80;4.78;;;;;;;24.43;47.63;98208.22;7307681;19;129161;-38
2021/12/09 08:26:30;;;;;;;22.55;5.60;;;;;;;24.41;47.97;98199.69;7307998;19;129468;-37
2021/12/09 08:28:55;;;;;;;27.60;5.68;;;;;;;24.41;47.88;98188.41;7310390;19;129690;-38
2021/12/09 08:31:20;;;;;;;23.83;5.03;;;;;;;24.42;48.19;98195.28;7313700;19;155378;-38
2021/12/09 08:33:46;;;;;;;43.30;7.17;;;;;;;24.40;47.91;98211.22;7314378;19;129170;-37
2021/12/09 08:36:11;;;;;;;20.77;4.80;;;;;;;24.41;47.82;98217.31;7315526;19;129332;-38
2021/12/09 08:38:37;;;;;;;27.13;5.70;;;;;;;24.39;48.31;98233.22;7314861;19;159270;-38
2021/12/09 08:41:03;;;;;;;20.15;4.70;;;;;;;24.35;48.40;98213.63;7317150;19;129027;-37
2021/12/09 08:43:29;;;;;;;28.97;5.40;;;;;;;24.34;48.02;98204.13;7315658;19;128999;-38
2021/12/09 08:45:54;;;;;;;29.57;5.50;;;;;;;24.36;48.00;98209.97;7313120;19;129588;-38
2021/12/09 08:48:21;;;;;;;21.95;4.82;;;;;;;24.31;48.00;98208.94;7315889;19;130287;-37
2021/12/09 08:50:47;;;;;;;25.65;5.43;;;;;;;24.36;48.49;98233.63;7315384;19;129270;-38
2021/12/09 08:53:16;;;;;;;25.17;5.28;;;;;;;24.35;48.11;98234.63;7314878;19;129396;-38
2021/12/09 08:55:42;;;;;;;30.75;5.72;;;;;;;24.35;48.38;98221.50;7314243;19;129188;-38
2021/12/09 08:58:09;;;;;;;17.13;4.27;;;;;;;24.37;48.38;98230.00;7316214;19;129351;-38
2021/12/09 09:00:36;;;;;;;33.05;5.72;;;;;;;24.35;48.35;98242.50;7313498;19;129098;-38
2021/12/09 09:03:03;;;;;;;21.17;4.90;;;;;;;24.38;47.58;98226.38;7315580;19;129072;-38
2021/12/09 09:05:30;;;;;;;18.98;4.20;;;;;;;24.38;47.74;98225.53;7314251;19;130138;-38
2021/12/09 09:07:56;;;;;;;32.00;6.03;;;;;;;24.36;47.86;98225.72;7314816;19;131086;-38
2021/12/09 09:10:35;;;;;;;22.88;4.95;;;;;;;24.37;48.32;98224.75;7312810;19;154332;-38
2021/12/09 09:13:01;;;;;;;20.00;4.50;;;;;;;24.37;47.92;98227.38;7314977;19;130778;-37
2021/12/09 09:15:27;;;;;;;29.33;5.70;;;;;;;24.37;48.03;98224.75;7313093;19;128949;-38
2021/12/09 09:17:54;;;;;;;21.00;4.65;;;;;;;24.38;48.39;98223.72;7315288;19;129441;-38
2021/12/09 09:20:22;;;;;;;11.60;3.88;;;;;;;24.35;48.11;98228.56;7315601;19;129201;-37
2021/12/09 09:22:47;;;;;;;31.50;5.68;;;;;;;24.26;47.81;98225.25;7314245;19;129096;-37
2021/12/09 09:25:17;;;;;;;20.90;4.28;;;;;;;24.36;48.22;98244.13;7314931;19;129242;-38
2021/12/09 09:27:44;;;;;;;29.30;5.30;;;;;;;24.35;48.13;98244.31;7315004;19;130356;-37
2021/12/09 09:30:14;;;;;;;22.48;4.50;;;;;;;24.40;47.78;98258.50;7312713;19;130210;-35
2021/12/09 09:32:40;;;;;;;25.58;5.15;;;;;;;24.39;47.99;98253.44;7314172;19;129138;-38
2021/12/09 09:35:06;;;;;;;14.27;4.27;;;;;;;24.36;48.40;98249.38;7314096;19;129505;-37
2021/12/09 09:37:31;;;;;;;21.90;4.77;;;;;;;24.28;47.76;98233.75;7314358;19;129096;-37
2021/12/09 09:39:56;;;;;;;28.10;5.13;;;;;;;24.35;47.83;98241.69;7312714;19;143561;-37
2021/12/09 09:45:11;;;;;;;26.33;5.30;;;;;;;24.37;48.16;98250.19;7313080;19;129284;-38
2021/12/09 09:47:36;;;;;;;29.52;5.43;;;;;;;24.33;48.51;98254.19;7313120;19;129262;-37
2021/12/09 09:50:05;;;;;;;25.85;5.00;;;;;;;24.32;47.89;98248.16;7311988;19;154596;-38
2021/12/09 09:52:30;;;;;;;23.98;5.18;;;;;;;24.30;48.29;98239.63;7313288;19;129224;-37
2021/12/09 09:54:56;;;;;;;30.50;5.63;;;;;;;24.34;48.18;98251.41;7307491;19;158673;-38
2021/12/09 09:57:22;;;;;;;23.52;4.90;;;;;;;24.32;47.97;98253.41;7313485;19;130525;-38
2021/12/09 09:59:48;;;;;;;27.85;4.72;;;;;;;24.34;47.86;98246.16;7313961;19;130608;-37
2021/12/09 10:02:15;;;;;;;22.27;4.70;;;;;;;24.35;48.35;98236.44;7314130;19;129856;-38
2021/12/09 10:07:08;;;;;;;28.25;4.68;;;;;;;24.29;47.91;98237.19;7314189;19;132537;-37
2021/12/09 10:09:34;;;;;;;26.27;5.13;;;;;;;24.26;48.42;98233.13;7313349;19;129237;-38
2021/12/09 10:12:00;;;;;;;20.92;4.72;;;;;;;24.26;48.04;98235.75;7311999;19;154219;-37
2021/12/09 10:14:30;;;;;;;27.25;5.22;;;;;;;24.29;48.65;98238.03;7309651;19;129214;-38
2021/12/09 10:17:14;;;;;;;23.80;4.82;;;;;;;24.31;48.27;98236.00;7313244;19;129542;-37
2021/12/09 10:19:52;;;;;;;31.02;5.28;;;;;;;24.28;48.72;98239.00;7313269;19;129994;-40
2021/12/09 10:22:36;;;;;;;26.17;5.15;;;;;;;24.27;48.11;98229.50;7312359;19;129127;-40
2021/12/09 10:25:15;;;;;;;10.45;3.58;;;;;;;24.30;48.37;98212.56;7308698;19;130105;-36
2021/12/09 10:27:45;;;;;;;30.33;5.25;;;;;;;24.25;48.65;98218.38;7313862;19;130444;-37
2021/12/09 10:30:18;;;;;;;18.85;4.03;;;;;;;24.27;48.48;98237.41;7312524;19;128955;-39
2021/12/09 10:32:44;;;;;;;29.02;4.97;;;;;;;24.28;48.42;98225.88;7312246;19;128941;-37
2021/12/09 10:35:15;;;;;;;18.38;3.90;;;;;;;24.29;48.37;98210.94;7311624;19;129983;-37
2021/12/09 10:37:41;;;;;;;29.23;5.47;;;;;;;24.28;48.27;98198.78;7312305;19;130916;-37
2021/12/09 10:40:13;;;;;;;14.60;3.63;;;;;;;24.26;48.16;98206.84;7312187;19;128884;-38
2021/12/09 10:42:45;;;;;;;27.73;5.15;;;;;;;24.26;48.37;98209.47;7312235;19;129170;-39
2021/12/09 10:45:33;;;;;;;14.32;3.92;;;;;;;24.24;48.83;98198.38;7311342;19;129188;-39
2021/12/09 10:48:05;;;;;;;24.83;4.70;;;;;;;24.25;48.76;98188.66;7312478;19;129317;-36
2021/12/09 10:50:39;;;;;;;20.95;4.43;;;;;;;24.23;48.85;98191.50;7310330;19;128772;-40
2021/12/09 10:55:48;;;;;;;38.30;5.65;;;;;;;24.15;48.88;98178.50;7310035;19;129360;-38
2021/12/09 10:58:16;;;;;;;27.98;5.15;;;;;;;24.25;48.81;98194.75;7311539;19;129456;-37
2021/12/09 11:01:02;;;;;;;27.48;4.55;;;;;;;24.21;48.23;98172.47;7313113;19;129073;-38
2021/12/09 11:03:28;;;;;;;26.30;4.65;;;;;;;24.23;48.99;98175.72;7311760;19;129030;-39
2021/12/09 11:05:58;;;;;;;24.75;4.50;;;;;;;24.25;48.76;98178.97;7311050;19;129483;-39
2021/12/09 11:08:26;;;;;;;21.08;3.95;;;;;;;24.24;48.92;98171.28;7311843;19;130897;-37
2021/12/09 11:11:02;;;;;;;26.25;4.63;;;;;;;24.22;48.28;98171.50;7309760;19;129251;-37
2021/12/09 11:13:36;;;;;;;22.83;4.30;;;;;;;24.23;48.21;98190.66;7310639;19;129698;-38
2021/12/09 11:16:04;;;;;;;17.35;4.07;;;;;;;24.22;48.50;98189.88;7309252;19;131162;-40
2021/12/09 11:18:41;;;;;;;25.02;4.50;;;;;;;24.20;48.22;98186.63;7310178;19;131015;-38
2021/12/09 11:21:10;;;;;;;10.38;3.83;;;;;;;24.24;48.32;98187.88;7311649;19;128652;-38
2021/12/09 11:23:46;;;;;;;30.85;4.97;;;;;;;24.18;48.42;98186.00;7309944;19;129346;-39
2021/12/09 11:26:29;;;;;;;16.35;3.63;;;;;;;24.08;48.39;98176.84;7311968;19;130251;-39